Main page
METAR-TAF:

METAR-TAF

Airports :

Colmar Airport

Colmar, France

latitude: 48-06-37N, longitude: 7-21-33E, elevation: 191 m

Current weather observation

The report was made 31 minutes ago, at 13:00 UTC
Wind 2 kt from variable directions
Temperature 7°C
Humidity 81%
Pressure 1023 hPa
Visibility 10 km or more
Broken clouds at a height of 3400 ft
Overcast at a height of 4300 ft

METAR: LFGA 171300Z AUTO VRB02KT 9999 BKN034 OVC043 07/04 Q1023

Time: 14:31 (13:31 UTC)


TAF: missing

Weather observations and forecasts of more than 4000 airports (METAR and TAF reports).

The available stations are represented by yellow and red dots on the map.

Hover mouse over dot to see the name of the station.

Then click to see weather observations and forecasts.

To change the map : click on the green buttons with a black cross to zoom in, on the green button with a dash to zoom out, or on the green arrows for adjacent maps.


METAR-TAF: